createdAt,value
2022-09-06T00:00:00.145Z,99413.88
2022-09-06T00:05:03.959Z,99425.03
2022-09-06T00:10:07.118Z,99361.81
2022-09-06T00:15:10.552Z,99411.44
2022-09-06T00:20:13.369Z,99402.84
2022-09-06T00:25:16.257Z,99437.06
2022-09-06T00:30:19.133Z,99431.00
2022-09-06T00:35:24.990Z,99492.53
2022-09-06T00:40:29.962Z,99506.16
2022-09-06T00:45:32.998Z,99532.63
2022-09-06T00:50:35.974Z,99519.84
2022-09-06T00:55:39.288Z,99424.03
2022-09-06T01:00:42.560Z,99475.47
2022-09-06T01:06:02.028Z,99485.75
2022-09-06T01:11:30.852Z,99480.66
2022-09-06T01:16:44.036Z,99472.19
2022-09-06T01:22:17.658Z,99477.31
2022-09-06T01:27:40.083Z,99515.69
2022-09-06T01:33:17.436Z,99503.66
2022-09-06T01:38:20.297Z,99513.09
2022-09-06T01:43:27.263Z,99472.91
2022-09-06T01:48:32.975Z,99507.13
2022-09-06T01:53:52.030Z,99525.03
2022-09-06T01:59:07.045Z,99508.00
2022-09-06T02:04:15.904Z,99512.28
2022-09-06T02:09:22.657Z,99470.50
2022-09-06T02:14:48.813Z,99467.09
2022-09-06T02:20:04.837Z,99508.94
2022-09-06T02:25:10.224Z,99516.59
2022-09-06T02:30:13.331Z,99437.03
2022-09-06T02:35:17.636Z,99507.19
2022-09-06T02:40:20.942Z,99524.31
2022-09-06T02:45:23.773Z,99540.53
2022-09-06T02:50:26.627Z,99531.09
2022-09-06T02:55:29.554Z,99502.00
2022-09-06T03:00:33.031Z,99500.38
2022-09-06T03:05:35.909Z,99490.13
2022-09-06T03:10:38.837Z,99508.09
2022-09-06T03:15:41.658Z,99506.31
2022-09-06T03:20:44.549Z,99502.84
2022-09-06T03:25:47.597Z,99484.91
2022-09-06T03:30:51.870Z,99523.47
2022-09-06T03:35:57.089Z,99489.28
2022-09-06T03:40:59.929Z,99511.53
2022-09-06T03:46:03.032Z,99442.34
2022-09-06T03:51:06.055Z,99486.78
2022-09-06T03:56:08.899Z,99545.72
2022-09-06T04:01:12.970Z,99567.88
2022-09-06T04:06:15.900Z,99510.50
2022-09-06T04:11:18.918Z,99509.69
2022-09-06T04:16:22.122Z,99494.25
2022-09-06T04:21:25.092Z,99571.25
2022-09-06T04:26:27.975Z,99531.09
2022-09-06T04:31:30.973Z,99513.22
2022-09-06T04:36:33.923Z,99478.16
2022-09-06T04:41:36.766Z,99511.53
2022-09-06T04:46:42.414Z,99403.00
2022-09-06T04:51:45.290Z,99409.03
2022-09-06T04:56:48.000Z,99450.03
2022-09-06T05:01:50.954Z,99481.66
2022-09-06T05:07:06.129Z,99437.22
2022-09-06T05:12:09.016Z,99475.69
2022-09-06T05:17:14.982Z,99493.59
2022-09-06T05:22:17.966Z,99511.56
2022-09-06T05:27:20.850Z,99505.59
2022-09-06T05:32:23.655Z,99463.75
2022-09-06T05:37:26.516Z,99407.34
2022-09-06T05:42:29.330Z,99461.16
2022-09-06T05:47:35.701Z,99458.59
2022-09-06T05:52:39.699Z,99377.44
2022-09-06T05:57:42.512Z,99429.53
2022-09-06T06:02:48.852Z,99471.41
2022-09-06T06:07:51.804Z,99464.56
2022-09-06T06:12:54.762Z,99463.72
2022-09-06T06:17:57.629Z,99440.59
2022-09-06T06:23:00.483Z,99411.53
2022-09-06T06:28:03.529Z,99422.63
2022-09-06T06:33:06.286Z,99456.78
2022-09-06T06:38:09.376Z,99420.91
2022-09-06T06:43:12.327Z,99432.81
2022-09-06T06:48:15.160Z,99428.47
2022-09-06T06:53:18.014Z,99348.94
2022-09-06T06:58:21.524Z,99406.13
2022-09-06T07:03:24.339Z,99440.22
2022-09-06T07:08:27.676Z,99448.78
2022-09-06T07:13:32.268Z,99443.72
2022-09-06T07:18:35.568Z,99442.09
2022-09-06T07:29:03.204Z,99443.78
2022-09-06T07:34:06.245Z,99428.41
2022-09-06T07:39:09.127Z,99412.22
2022-09-06T07:44:11.890Z,99336.19
2022-09-06T07:49:14.850Z,99426.53
2022-09-06T07:54:33.059Z,99404.38
2022-09-06T07:59:38.969Z,99414.63
2022-09-06T08:04:47.576Z,99436.00
2022-09-06T08:09:52.549Z,99436.88
2022-09-06T08:14:55.773Z,99438.59
2022-09-06T08:19:58.753Z,99356.69
2022-09-06T08:25:01.734Z,99417.19
2022-09-06T08:30:06.682Z,99430.75
2022-09-06T08:35:10.131Z,99388.88
2022-09-06T08:40:20.800Z,99361.53
2022-09-06T08:45:25.265Z,99443.50
2022-09-06T08:50:29.055Z,99464.13
2022-09-06T08:55:38.330Z,99446.06
2022-09-06T09:00:43.670Z,99440.00
2022-09-06T09:05:49.500Z,99429.72
2022-09-06T09:11:05.347Z,99434.81
2022-09-06T09:16:08.361Z,99420.28
2022-09-06T09:21:11.360Z,99433.00
2022-09-06T09:26:15.528Z,99457.06
2022-09-06T09:31:38.060Z,99471.78
2022-09-06T09:36:41.243Z,99460.84
2022-09-06T09:41:44.188Z,99452.34
2022-09-06T09:46:47.135Z,99460.09
2022-09-06T09:52:07.977Z,99444.69
2022-09-06T09:57:12.395Z,99415.53
2022-09-06T10:08:13.234Z,99440.25
2022-09-06T10:13:23.032Z,99441.91
2022-09-06T10:18:41.240Z,99452.28
2022-09-06T10:29:48.470Z,99443.84
2022-09-06T10:35:00.147Z,99435.34
2022-09-06T10:40:11.569Z,99441.34
2022-09-06T10:45:30.000Z,99450.75
2022-09-06T10:50:36.008Z,99453.34
2022-09-06T10:55:40.626Z,99446.53
2022-09-06T11:00:47.145Z,99439.75
2022-09-06T11:05:55.121Z,99428.66
2022-09-06T11:10:59.266Z,99428.63
2022-09-06T11:16:05.577Z,99410.66
2022-09-06T11:21:29.905Z,99409.78
2022-09-06T11:26:54.561Z,99405.47
2022-09-06T11:32:17.351Z,99420.88
2022-09-06T11:37:34.726Z,99406.34
2022-09-06T11:42:49.586Z,99389.25
2022-09-06T11:47:53.553Z,99391.84
2022-09-06T11:52:57.171Z,99381.59
2022-09-06T11:58:01.136Z,99377.31
2022-09-06T12:08:33.050Z,99409.84
2022-09-06T12:13:48.580Z,99418.41
2022-09-06T12:18:51.436Z,99414.09
2022-09-06T12:23:54.274Z,99410.72
2022-09-06T12:28:57.211Z,99382.53
2022-09-06T12:34:08.305Z,99358.63
2022-09-06T12:39:15.033Z,99339.84
2022-09-06T12:44:28.384Z,99351.78
2022-09-06T12:49:31.652Z,99351.81
2022-09-06T12:54:34.604Z,99359.50
2022-09-06T12:59:37.509Z,99334.72
2022-09-06T13:04:46.972Z,99356.94
2022-09-06T13:09:52.384Z,99340.72
2022-09-06T13:14:56.571Z,99356.91
2022-09-06T13:20:13.160Z,99362.03
2022-09-06T13:25:23.529Z,99385.97
2022-09-06T13:30:49.588Z,99386.84
2022-09-06T13:36:08.693Z,99385.13
2022-09-06T13:41:26.646Z,99379.13
2022-09-06T13:46:29.668Z,99373.16
2022-09-06T13:51:32.673Z,99372.28
2022-09-06T13:56:36.032Z,99386.00
2022-09-06T14:01:41.241Z,99394.50
2022-09-06T14:06:44.235Z,99421.88
2022-09-06T14:11:48.354Z,99414.16
2022-09-06T14:16:51.551Z,99422.72
2022-09-06T14:21:54.352Z,99431.25
2022-09-06T14:26:57.512Z,99428.72
2022-09-06T14:32:00.248Z,99413.34
2022-09-06T14:37:03.062Z,99433.84
2022-09-06T14:42:06.030Z,99446.63
2022-09-06T14:47:08.975Z,99439.78
2022-09-06T14:52:11.794Z,99428.69
2022-09-06T14:57:14.504Z,99411.59
2022-09-06T15:02:17.381Z,99415.88
2022-09-06T15:07:20.369Z,99416.72
2022-09-06T15:12:23.381Z,99427.84
2022-09-06T15:17:26.109Z,99419.28
2022-09-06T15:22:28.883Z,99441.50
2022-09-06T15:27:32.342Z,99443.22
2022-09-06T15:32:35.130Z,99450.88
2022-09-06T15:37:37.863Z,99426.97
2022-09-06T15:42:41.062Z,99406.50
2022-09-06T15:47:43.762Z,99393.69
2022-09-06T15:52:46.502Z,99390.25
2022-09-06T15:57:49.318Z,99386.84
2022-09-06T16:02:53.478Z,99366.28
2022-09-06T16:07:59.534Z,99384.25
2022-09-06T16:13:02.266Z,99365.47
2022-09-06T16:18:05.729Z,99385.09
2022-09-06T16:23:08.500Z,99374.03
2022-09-06T16:28:11.313Z,99362.91
2022-09-06T16:33:14.373Z,99362.06
2022-09-06T16:38:17.187Z,99354.38
2022-09-06T16:43:19.939Z,99341.56
2022-09-06T16:48:22.750Z,99339.00
2022-09-06T16:53:25.545Z,99332.16
2022-09-06T16:58:30.355Z,99319.38
2022-09-06T17:03:33.223Z,99318.50
2022-09-06T17:08:37.000Z,99316.81
2022-09-06T17:13:39.857Z,99301.47
2022-09-06T17:18:43.319Z,99298.88
2022-09-06T17:23:46.076Z,99284.38
2022-09-06T17:28:50.181Z,99286.94
2022-09-06T17:33:53.639Z,99283.53
2022-09-06T17:39:08.131Z,99275.00
2022-09-06T17:44:12.022Z,99268.16
2022-09-06T17:49:15.357Z,99261.34
2022-09-06T17:54:18.493Z,99252.81
2022-09-06T17:59:21.404Z,99240.84
2022-09-06T18:04:24.175Z,99214.38
2022-09-06T18:09:27.009Z,99219.53
2022-09-06T18:14:30.059Z,99219.50
2022-09-06T18:19:33.122Z,99220.38
2022-09-06T18:24:35.930Z,99216.97
2022-09-06T18:29:38.709Z,99222.06
2022-09-06T18:34:41.543Z,99201.59
2022-09-06T18:39:44.603Z,99239.16
2022-09-06T18:44:47.503Z,99243.41
2022-09-06T18:49:50.286Z,99255.34
2022-09-06T18:54:53.180Z,99250.22
2022-09-06T18:59:55.892Z,99237.44
2022-09-06T19:04:59.650Z,99221.22
2022-09-06T19:10:02.416Z,99227.19
2022-09-06T19:15:06.477Z,99212.69
2022-09-06T19:20:11.066Z,99195.59
2022-09-06T19:25:13.822Z,99195.63
2022-09-06T19:30:16.592Z,99189.66
2022-09-06T19:35:20.617Z,99204.09
2022-09-06T19:40:23.456Z,99194.72
2022-09-06T19:45:26.221Z,99197.25
2022-09-06T19:50:28.971Z,99193.84
2022-09-06T19:55:35.657Z,99176.84
2022-09-06T20:00:41.437Z,99184.53
2022-09-06T20:05:44.278Z,99184.50
2022-09-06T20:10:57.935Z,99177.75
2022-09-06T20:16:01.019Z,99174.28
2022-09-06T20:21:04.416Z,99164.91
2022-09-06T20:26:16.366Z,99151.25
2022-09-06T20:31:21.056Z,99129.94
2022-09-06T20:36:23.947Z,99161.50
2022-09-06T20:41:27.805Z,99137.66
2022-09-06T20:46:32.710Z,99137.59
2022-09-06T20:51:36.652Z,99130.81
2022-09-06T20:56:41.047Z,99164.03
2022-09-06T21:01:46.350Z,99146.97
2022-09-06T21:06:51.391Z,99136.72
2022-09-06T21:11:54.691Z,99124.78
2022-09-06T21:16:57.902Z,99126.50
2022-09-06T21:22:01.240Z,99125.66
2022-09-06T21:27:04.018Z,99117.13
2022-09-06T21:32:06.927Z,99117.13
2022-09-06T21:37:09.692Z,99130.75
2022-09-06T21:42:12.467Z,99140.16
2022-09-06T21:47:15.251Z,99138.44
2022-09-06T21:52:18.035Z,99123.91
2022-09-06T21:57:20.803Z,99113.66
2022-09-06T22:02:24.024Z,99123.91
2022-09-06T22:07:26.901Z,99129.00
2022-09-06T22:12:29.710Z,99108.56
2022-09-06T22:17:32.423Z,99115.38
2022-09-06T22:22:35.560Z,99111.13
2022-09-06T22:27:38.385Z,99092.34
2022-09-06T22:32:41.419Z,99107.72
2022-09-06T22:37:44.165Z,99108.56
2022-09-06T22:42:47.258Z,99083.03
2022-09-06T22:47:51.364Z,99095.81
2022-09-06T22:52:54.357Z,99088.13
2022-09-06T22:57:57.245Z,99071.94
2022-09-06T23:03:00.009Z,99087.28
2022-09-06T23:08:03.928Z,99061.72
2022-09-06T23:13:08.228Z,99033.59
2022-09-06T23:18:10.929Z,99039.56
2022-09-06T23:23:14.051Z,99015.69
2022-09-06T23:28:16.748Z,99014.81
2022-09-06T23:33:19.463Z,98984.16
2022-09-06T23:38:22.460Z,99026.75
2022-09-06T23:43:25.175Z,99041.25
2022-09-06T23:48:27.979Z,99035.25
2022-09-06T23:53:31.191Z,99049.75
2022-09-06T23:58:34.818Z,99062.56
